createdAt,value
2022-12-19T00:00:35.778Z,102503.34
2022-12-19T00:03:05.704Z,102502.78
2022-12-19T00:05:38.334Z,102514.91
2022-12-19T00:08:17.085Z,102512.88
2022-12-19T00:10:55.592Z,102517.56
2022-12-19T00:13:24.305Z,102529.94
2022-12-19T00:15:55.324Z,102526.06
2022-12-19T00:18:24.968Z,102528.69
2022-12-19T00:20:57.143Z,102534.59
2022-12-19T00:23:25.602Z,102543.22
2022-12-19T00:25:53.869Z,102537.41
2022-12-19T00:28:22.315Z,102548.06
2022-12-19T00:30:50.554Z,102546.75
2022-12-19T00:33:21.538Z,102555.28
2022-12-19T00:35:51.128Z,102540.03
2022-12-19T00:38:19.324Z,102545.69
2022-12-19T00:40:47.480Z,102550.22
2022-12-19T00:43:15.662Z,102544.63
2022-12-19T00:45:43.901Z,102542.22
2022-12-19T00:48:12.141Z,102542.59
2022-12-19T00:50:42.763Z,102547.94
2022-12-19T00:53:12.464Z,102538.25
2022-12-19T00:55:40.778Z,102538.47
2022-12-19T00:58:08.851Z,102536.72
2022-12-19T01:00:37.025Z,102544.41
2022-12-19T01:03:05.759Z,102544.50
2022-12-19T01:05:34.053Z,102543.97
2022-12-19T01:08:02.547Z,102539.69
2022-12-19T01:10:32.083Z,102538.75
2022-12-19T01:12:59.176Z,102548.72
2022-12-19T01:15:27.476Z,102548.72
2022-12-19T01:17:55.560Z,102561.09
2022-12-19T01:20:29.081Z,102558.41
2022-12-19T01:23:00.291Z,102547.13
2022-12-19T01:25:28.875Z,102550.78
2022-12-19T01:27:58.769Z,102546.25
2022-12-19T01:30:27.631Z,102550.22
2022-12-19T01:32:58.550Z,102558.53
2022-12-19T01:35:26.836Z,102562.22
2022-12-19T01:38:03.319Z,102557.66
2022-12-19T01:40:37.480Z,102559.28
2022-12-19T01:43:07.522Z,102554.13
2022-12-19T01:45:42.126Z,102552.88
2022-12-19T01:48:17.958Z,102554.38
2022-12-19T01:51:01.168Z,102556.78
2022-12-19T01:53:35.117Z,102556.22
2022-12-19T01:56:07.882Z,102551.94
2022-12-19T01:58:40.029Z,102556.31
2022-12-19T02:01:08.281Z,102548.94
2022-12-19T02:03:39.135Z,102570.19
2022-12-19T02:06:09.842Z,102566.81
2022-12-19T02:08:38.598Z,102564.63
2022-12-19T02:11:07.040Z,102568.66
2022-12-19T02:13:35.591Z,102574.72
2022-12-19T02:16:17.619Z,102575.81
2022-12-19T02:18:57.601Z,102600.84
2022-12-19T02:21:46.244Z,102602.66
2022-12-19T02:24:57.558Z,102588.53
2022-12-19T02:28:07.959Z,102586.56
2022-12-19T02:30:51.830Z,102600.91
2022-12-19T02:33:32.590Z,102586.63
2022-12-19T02:36:09.051Z,102605.56
2022-12-19T02:38:46.197Z,102610.09
2022-12-19T02:41:23.924Z,102603.16
2022-12-19T02:43:59.073Z,102603.81
2022-12-19T02:46:30.675Z,102615.19
2022-12-19T02:48:59.637Z,102612.81
2022-12-19T02:51:27.921Z,102616.47
2022-12-19T02:53:56.178Z,102617.38
2022-12-19T02:56:35.366Z,102615.34
2022-12-19T02:59:35.394Z,102627.38
2022-12-19T03:02:12.192Z,102623.19
2022-12-19T03:04:49.420Z,102634.16
2022-12-19T03:07:29.426Z,102638.16
2022-12-19T03:10:07.681Z,102637.63
2022-12-19T03:12:39.964Z,102643.00
2022-12-19T03:15:09.771Z,102641.72
2022-12-19T03:17:39.937Z,102640.56
2022-12-19T03:20:15.081Z,102640.97
2022-12-19T03:22:43.300Z,102646.59
2022-12-19T03:25:11.532Z,102655.22
2022-12-19T03:27:41.103Z,102660.72
2022-12-19T03:30:13.126Z,102666.25
2022-12-19T03:32:45.447Z,102667.72
2022-12-19T03:35:19.775Z,102653.56
2022-12-19T03:37:50.347Z,102657.28
2022-12-19T03:40:21.303Z,102658.13
2022-12-19T03:43:08.784Z,102666.13
2022-12-19T03:45:46.113Z,102676.72
2022-12-19T03:48:22.087Z,102685.47
2022-12-19T03:50:57.836Z,102689.00
2022-12-19T03:53:34.982Z,102679.59
2022-12-19T03:56:12.871Z,102691.34
2022-12-19T03:58:46.991Z,102683.53
2022-12-19T04:01:15.988Z,102687.28
2022-12-19T04:03:46.159Z,102693.34
2022-12-19T04:06:16.273Z,102696.75
2022-12-19T04:08:45.763Z,102697.16
2022-12-19T04:11:19.652Z,102703.44
2022-12-19T04:13:54.480Z,102703.66
2022-12-19T04:16:32.074Z,102714.97
2022-12-19T04:19:07.668Z,102703.53
2022-12-19T04:21:43.962Z,102711.34
2022-12-19T04:24:20.795Z,102704.53
2022-12-19T04:26:51.279Z,102708.47
2022-12-19T04:29:20.509Z,102709.72
2022-12-19T04:31:49.827Z,102700.25
2022-12-19T04:34:22.499Z,102717.81
2022-12-19T04:36:52.220Z,102720.22
2022-12-19T04:39:20.381Z,102716.91
2022-12-19T04:41:48.469Z,102719.38
2022-12-19T04:44:16.651Z,102719.69
2022-12-19T04:46:44.806Z,102733.25
2022-12-19T04:49:13.374Z,102727.81
2022-12-19T04:51:42.989Z,102730.09
2022-12-19T04:54:11.367Z,102730.16
2022-12-19T04:56:39.754Z,102729.91
2022-12-19T04:59:07.997Z,102737.63
2022-12-19T05:01:36.229Z,102736.91
2022-12-19T05:04:05.031Z,102744.69
2022-12-19T05:06:33.344Z,102754.03
2022-12-19T05:09:02.974Z,102750.72
2022-12-19T05:11:31.320Z,102756.84
2022-12-19T05:14:00.547Z,102765.25
2022-12-19T05:16:29.427Z,102766.13
2022-12-19T05:18:57.896Z,102768.28
2022-12-19T05:21:26.112Z,102774.41
2022-12-19T05:23:55.623Z,102776.19
2022-12-19T05:26:25.412Z,102774.56
2022-12-19T05:28:53.842Z,102786.41
2022-12-19T05:31:23.248Z,102781.19
2022-12-19T05:33:51.968Z,102788.59
2022-12-19T05:36:20.317Z,102788.94
2022-12-19T05:38:48.789Z,102791.06
2022-12-19T05:41:18.883Z,102797.00
2022-12-19T05:43:52.869Z,102797.00
2022-12-19T05:46:21.905Z,102810.47
2022-12-19T05:48:50.450Z,102815.41
2022-12-19T05:51:19.244Z,102803.38
2022-12-19T05:53:47.335Z,102811.47
2022-12-19T05:56:17.192Z,102816.72
2022-12-19T05:58:46.266Z,102814.41
2022-12-19T06:01:18.468Z,102826.72
2022-12-19T06:03:46.947Z,102822.47
2022-12-19T06:06:17.545Z,102830.84
2022-12-19T06:08:45.975Z,102823.28
2022-12-19T06:11:17.243Z,102837.09
2022-12-19T06:13:48.668Z,102834.78
2022-12-19T06:16:19.988Z,102841.97
2022-12-19T06:18:48.914Z,102859.91
2022-12-19T06:21:19.095Z,102861.72
2022-12-19T06:23:48.222Z,102862.88
2022-12-19T06:26:20.169Z,102869.28
2022-12-19T06:28:49.639Z,102874.03
2022-12-19T06:31:20.266Z,102878.28
2022-12-19T06:33:48.395Z,102871.75
2022-12-19T06:36:20.265Z,102870.25
2022-12-19T06:38:48.685Z,102879.94
2022-12-19T06:41:34.672Z,102888.16
2022-12-19T06:44:03.971Z,102887.50
2022-12-19T06:46:34.393Z,102882.72
2022-12-19T06:49:02.792Z,102890.28
2022-12-19T06:51:31.406Z,102883.59
2022-12-19T06:53:59.660Z,102888.69
2022-12-19T06:56:28.305Z,102891.84
2022-12-19T06:58:56.517Z,102901.53
2022-12-19T07:01:35.899Z,102901.72
2022-12-19T07:04:05.971Z,102902.38
2022-12-19T07:06:34.115Z,102914.38
2022-12-19T07:09:02.331Z,102912.72
2022-12-19T07:11:30.590Z,102918.47
2022-12-19T07:13:59.111Z,102921.13
2022-12-19T07:16:29.066Z,102923.41
2022-12-19T07:18:57.510Z,102933.13
2022-12-19T07:21:27.319Z,102932.16
2022-12-19T07:23:55.453Z,102928.03
2022-12-19T07:26:24.420Z,102922.91
2022-12-19T07:28:52.674Z,102937.41
2022-12-19T07:31:20.926Z,102936.41
2022-12-19T07:33:49.074Z,102947.44
2022-12-19T07:36:17.208Z,102929.81
2022-12-19T07:38:46.769Z,102929.81
2022-12-19T07:41:15.053Z,102947.44
2022-12-19T07:44:32.812Z,102945.63
2022-12-19T07:47:00.934Z,102953.69
2022-12-19T07:49:29.098Z,102950.38
2022-12-19T07:51:57.234Z,102943.34
2022-12-19T07:54:26.870Z,102946.75
2022-12-19T07:56:55.253Z,102950.69
2022-12-19T07:59:29.603Z,102962.72
2022-12-19T08:01:58.683Z,102965.69
2022-12-19T08:04:27.562Z,102969.97
2022-12-19T08:06:55.696Z,102966.69
2022-12-19T08:09:27.675Z,102979.84
2022-12-19T08:11:57.265Z,102973.09
2022-12-19T08:14:25.496Z,102979.53
2022-12-19T08:17:19.738Z,102975.22
2022-12-19T08:19:41.803Z,102966.53
2022-12-19T08:22:10.166Z,102974.91
2022-12-19T08:24:39.029Z,102982.16
2022-12-19T08:27:08.658Z,102974.59
2022-12-19T08:29:36.765Z,102975.41
2022-12-19T08:32:05.051Z,102968.84
2022-12-19T08:34:33.569Z,102975.56
2022-12-19T08:37:01.735Z,102976.91
2022-12-19T08:39:29.841Z,102976.41
2022-12-19T08:41:59.046Z,102968.31
2022-12-19T08:44:28.615Z,102971.63
2022-12-19T08:46:56.734Z,102965.34
2022-12-19T08:49:24.838Z,102968.16
2022-12-19T08:51:52.981Z,102963.06
2022-12-19T08:54:21.138Z,102959.78
2022-12-19T08:56:49.322Z,102966.16
2022-12-19T08:59:17.650Z,102958.22
2022-12-19T09:01:55.700Z,102950.66
2022-12-19T09:05:55.447Z,102954.28
2022-12-19T09:07:15.645Z,102954.81
2022-12-19T09:09:44.240Z,102945.94
2022-12-19T09:12:13.503Z,102943.59
2022-12-19T09:14:41.910Z,102944.38
2022-12-19T09:17:11.638Z,102941.63
2022-12-19T09:19:39.993Z,102937.22
2022-12-19T09:22:11.677Z,102941.03
2022-12-19T09:24:40.503Z,102939.28
2022-12-19T09:27:08.706Z,102941.19
2022-12-19T09:29:36.853Z,102947.47
2022-12-19T09:32:05.109Z,102925.66
2022-12-19T09:34:38.356Z,102929.94
2022-12-19T09:37:07.841Z,102925.41
2022-12-19T09:39:36.629Z,102922.72
2022-12-19T09:42:41.228Z,102922.81
2022-12-19T09:45:42.441Z,102916.47
2022-12-19T09:48:23.790Z,102915.41
2022-12-19T09:51:09.382Z,102918.47
2022-12-19T09:53:45.561Z,102909.28
2022-12-19T09:56:25.140Z,102900.31
2022-12-19T09:58:59.758Z,102898.31
2022-12-19T10:01:33.273Z,102887.91
2022-12-19T10:04:04.953Z,102885.44
2022-12-19T10:07:12.513Z,102882.09
2022-12-19T10:12:46.350Z,102867.56
2022-12-19T10:12:47.440Z,102875.56
2022-12-19T10:15:27.461Z,102872.75
2022-12-19T10:18:19.027Z,102859.91
2022-12-19T10:20:53.646Z,102874.09
2022-12-19T10:23:45.151Z,102869.88
2022-12-19T10:26:20.743Z,102859.22
2022-12-19T10:29:05.479Z,102858.94
2022-12-19T10:31:39.597Z,102863.06
2022-12-19T10:34:17.489Z,102863.88
2022-12-19T10:37:24.473Z,102847.31
2022-12-19T10:39:52.498Z,102853.41
2022-12-19T10:42:32.085Z,102844.41
2022-12-19T10:45:03.227Z,102842.56
2022-12-19T10:47:31.768Z,102845.69
2022-12-19T10:50:05.481Z,102839.66
2022-12-19T10:52:52.351Z,102840.56
2022-12-19T10:55:40.207Z,102836.94
2022-12-19T10:58:20.392Z,102840.56
2022-12-19T11:01:00.885Z,102838.09
2022-12-19T11:03:29.275Z,102836.75
2022-12-19T11:05:58.981Z,102854.31
2022-12-19T11:08:29.386Z,102838.28
2022-12-19T11:13:29.151Z,102844.03
2022-12-19T11:18:41.875Z,102833.84
2022-12-19T11:21:28.330Z,102837.13
2022-12-19T11:29:37.163Z,102839.75
2022-12-19T11:29:37.271Z,102836.00
2022-12-19T11:29:40.454Z,102841.28
2022-12-19T11:30:38.843Z,102834.38
2022-12-19T11:34:06.089Z,102831.38
2022-12-19T11:36:39.709Z,102830.00
2022-12-19T11:39:17.724Z,102826.47
2022-12-19T11:41:53.454Z,102845.50
2022-12-19T11:44:31.863Z,102833.28
2022-12-19T11:47:10.950Z,102837.75
2022-12-19T11:49:43.579Z,102831.47
2022-12-19T11:53:02.475Z,102836.34
2022-12-19T11:55:20.103Z,102831.38
2022-12-19T11:57:49.287Z,102832.94
2022-12-19T12:00:21.769Z,102831.38
2022-12-19T12:03:13.705Z,102837.38
2022-12-19T12:05:44.788Z,102826.28
2022-12-19T12:13:00.832Z,102832.66
2022-12-19T12:19:03.260Z,102837.53
2022-12-19T12:27:26.697Z,102834.09
2022-12-19T12:28:21.729Z,102831.94
2022-12-19T12:31:04.353Z,102838.31
2022-12-19T12:31:38.889Z,102827.94
2022-12-19T12:31:57.747Z,102832.50
2022-12-19T12:32:00.975Z,102846.97
2022-12-19T12:35:56.814Z,102846.84
2022-12-19T12:38:49.489Z,102845.56
2022-12-19T12:41:39.674Z,102838.59
2022-12-19T12:44:12.818Z,102846.69
2022-12-19T12:46:43.389Z,102846.03
2022-12-19T12:49:30.770Z,102853.16
2022-12-19T12:52:02.981Z,102849.56
2022-12-19T12:54:35.734Z,102846.72
2022-12-19T12:57:04.173Z,102866.03
2022-12-19T12:59:33.017Z,102857.19
2022-12-19T13:02:08.010Z,102858.03
2022-12-19T13:04:43.225Z,102861.78
2022-12-19T13:07:21.429Z,102862.28
2022-12-19T13:10:06.250Z,102861.50
2022-12-19T13:12:51.674Z,102866.97
2022-12-19T13:15:37.560Z,102869.72
2022-12-19T13:18:37.892Z,102869.50
2022-12-19T13:21:10.045Z,102877.13
2022-12-19T13:23:48.451Z,102878.13
2022-12-19T13:26:45.857Z,102881.25
2022-12-19T13:29:33.679Z,102891.25
2022-12-19T13:32:17.054Z,102888.84
2022-12-19T13:35:21.259Z,102888.84
2022-12-19T13:39:50.241Z,102892.59
2022-12-19T13:40:57.873Z,102892.84
2022-12-19T13:43:49.023Z,102888.84
2022-12-19T13:46:27.916Z,102905.50
2022-12-19T13:48:59.889Z,102904.84
2022-12-19T13:51:28.032Z,102907.63
2022-12-19T13:53:59.846Z,102906.16
2022-12-19T13:56:32.089Z,102917.81
2022-12-19T13:59:02.930Z,102914.69
2022-12-19T14:01:33.482Z,102915.97
2022-12-19T14:04:08.558Z,102918.56
2022-12-19T14:06:42.565Z,102917.59
2022-12-19T14:11:25.485Z,102915.41
2022-12-19T14:13:59.226Z,102914.84
2022-12-19T14:15:32.929Z,102921.00
2022-12-19T14:18:41.696Z,102924.09
2022-12-19T14:22:06.140Z,102918.66
2022-12-19T14:23:43.345Z,102921.44
2022-12-19T14:28:21.103Z,102919.75
2022-12-19T14:29:15.979Z,102917.44
2022-12-19T14:32:24.002Z,102930.59
2022-12-19T14:35:05.072Z,102925.47
2022-12-19T14:39:18.422Z,102922.47
2022-12-19T14:40:27.037Z,102919.84
2022-12-19T14:43:55.807Z,102915.91
2022-12-19T14:54:12.864Z,102918.28
2022-12-19T14:54:16.120Z,102916.56
2022-12-19T14:54:20.955Z,102931.72
2022-12-19T14:56:16.683Z,102920.91
2022-12-19T14:58:56.274Z,102922.78
2022-12-19T15:01:26.622Z,102930.91
2022-12-19T15:04:49.313Z,102928.13
2022-12-19T15:07:07.752Z,102921.69
2022-12-19T15:11:04.725Z,102927.81
2022-12-19T15:14:53.929Z,102939.63
2022-12-19T15:15:55.450Z,102933.66
2022-12-19T15:18:28.441Z,102930.47
2022-12-19T15:20:59.212Z,102934.59
2022-12-19T15:23:28.075Z,102942.84
2022-12-19T15:26:05.719Z,102932.91
2022-12-19T15:28:40.383Z,102938.09
2022-12-19T15:31:19.577Z,102942.88
2022-12-19T15:34:14.886Z,102945.53
2022-12-19T15:36:37.747Z,102948.34
2022-12-19T15:39:06.083Z,102945.88
2022-12-19T15:41:34.265Z,102947.59
2022-12-19T15:44:08.533Z,102953.75
2022-12-19T15:46:38.902Z,102946.34
2022-12-19T15:49:16.655Z,102944.25
2022-12-19T15:51:45.175Z,102945.59
2022-12-19T15:57:01.466Z,102954.03
2022-12-19T15:59:38.012Z,102949.84
2022-12-19T16:02:20.041Z,102952.00
2022-12-19T16:04:56.924Z,102948.06
2022-12-19T16:07:31.009Z,102962.75
2022-12-19T16:09:59.175Z,102962.75
2022-12-19T16:12:33.975Z,102961.41
2022-12-19T16:15:03.182Z,102956.34
2022-12-19T16:17:33.798Z,102956.56
2022-12-19T16:20:03.370Z,102959.66
2022-12-19T16:22:31.801Z,102959.34
2022-12-19T16:25:00.101Z,102967.53
2022-12-19T16:27:30.265Z,102970.91
2022-12-19T16:30:03.891Z,102969.00
2022-12-19T16:32:32.021Z,102974.50
2022-12-19T16:35:00.252Z,102957.97
2022-12-19T16:37:32.406Z,102953.78
2022-12-19T16:40:02.077Z,102945.84
2022-12-19T16:42:31.348Z,102951.97
2022-12-19T16:44:59.519Z,102946.72
2022-12-19T16:47:28.308Z,102946.66
2022-12-19T16:49:56.712Z,102939.38
2022-12-19T16:52:25.075Z,102949.59
2022-12-19T16:54:54.659Z,102941.69
2022-12-19T16:57:23.927Z,102934.81
2022-12-19T16:59:52.795Z,102934.63
2022-12-19T17:02:43.504Z,102929.75
2022-12-19T17:05:24.393Z,102933.59
2022-12-19T17:07:53.394Z,102947.41
2022-12-19T17:10:26.694Z,102931.66
2022-12-19T17:12:56.658Z,102923.09
2022-12-19T17:15:28.683Z,102920.84
2022-12-19T17:17:59.365Z,102921.66
2022-12-19T17:20:31.922Z,102929.34
2022-12-19T17:23:00.347Z,102921.75
2022-12-19T17:25:30.197Z,102920.28
2022-12-19T17:27:58.538Z,102927.78
2022-12-19T17:30:26.745Z,102931.19
2022-12-19T17:32:56.880Z,102928.63
2022-12-19T17:35:29.167Z,102934.38
2022-12-19T17:37:58.386Z,102938.53
2022-12-19T17:40:28.388Z,102926.09
2022-12-19T17:42:58.732Z,102928.97
2022-12-19T17:45:30.042Z,102924.53
2022-12-19T17:48:03.206Z,102923.72
2022-12-19T17:50:36.558Z,102914.97
2022-12-19T17:53:04.892Z,102907.56
2022-12-19T17:55:33.500Z,102904.44
2022-12-19T17:58:03.194Z,102901.81
2022-12-19T18:00:33.738Z,102902.13
2022-12-19T18:03:06.791Z,102896.47
2022-12-19T18:05:37.147Z,102905.34
2022-12-19T18:08:11.235Z,102900.72
2022-12-19T18:10:39.563Z,102898.41
2022-12-19T18:13:09.045Z,102888.91
2022-12-19T18:15:37.703Z,102898.44
2022-12-19T18:18:06.606Z,102897.63
2022-12-19T18:20:35.113Z,102893.25
2022-12-19T18:23:03.757Z,102890.69
2022-12-19T18:25:35.256Z,102892.50
2022-12-19T18:28:03.705Z,102897.59
2022-12-19T18:30:33.291Z,102877.25
2022-12-19T18:33:03.410Z,102881.09
2022-12-19T18:35:37.197Z,102887.94
2022-12-19T18:38:08.266Z,102889.13
2022-12-19T18:40:36.557Z,102896.75
2022-12-19T18:43:05.255Z,102908.38
2022-12-19T18:45:37.450Z,102914.97
2022-12-19T18:48:09.286Z,102916.97
2022-12-19T18:50:37.418Z,102901.69
2022-12-19T18:53:11.899Z,102914.28
2022-12-19T18:55:40.014Z,102897.00
2022-12-19T18:58:08.322Z,102891.25
2022-12-19T19:00:40.481Z,102890.38
2022-12-19T19:03:15.504Z,102883.63
2022-12-19T19:05:44.257Z,102891.63
2022-12-19T19:08:17.894Z,102873.91
2022-12-19T19:10:47.290Z,102887.88
2022-12-19T19:13:16.507Z,102896.50
2022-12-19T19:15:49.631Z,102893.28
2022-12-19T19:18:20.937Z,102885.53
2022-12-19T19:20:53.159Z,102887.91
2022-12-19T19:23:27.730Z,102891.81
2022-12-19T19:25:55.990Z,102885.91
2022-12-19T19:28:24.097Z,102884.00
2022-12-19T19:30:53.968Z,102889.25
2022-12-19T19:33:25.114Z,102873.81
2022-12-19T19:35:57.091Z,102873.19
2022-12-19T19:38:25.813Z,102860.41
2022-12-19T19:40:54.296Z,102862.69
2022-12-19T19:43:22.435Z,102861.69
2022-12-19T19:45:53.308Z,102861.03
2022-12-19T19:48:21.790Z,102861.97
2022-12-19T19:50:50.141Z,102869.78
2022-12-19T19:53:18.305Z,102851.06
2022-12-19T19:55:46.376Z,102848.41
2022-12-19T19:58:14.517Z,102848.09
2022-12-19T20:00:43.579Z,102856.13
2022-12-19T20:03:18.739Z,102856.13
2022-12-19T20:05:51.355Z,102853.66
2022-12-19T20:08:19.689Z,102845.63
2022-12-19T20:10:55.452Z,102844.47
2022-12-19T20:13:23.687Z,102847.72
2022-12-19T20:15:52.333Z,102861.25
2022-12-19T20:18:21.885Z,102850.59
2022-12-19T20:20:50.102Z,102855.75
2022-12-19T20:23:18.281Z,102861.47
2022-12-19T20:25:47.557Z,102875.41
2022-12-19T20:28:15.735Z,102858.84
2022-12-19T20:30:43.857Z,102853.59
2022-12-19T20:33:12.021Z,102858.31
2022-12-19T20:35:41.572Z,102858.22
2022-12-19T20:38:09.822Z,102865.16
2022-12-19T20:40:37.943Z,102869.97
2022-12-19T20:43:06.182Z,102868.34
2022-12-19T20:45:34.450Z,102877.53
2022-12-19T20:48:02.608Z,102863.78
2022-12-19T20:50:30.855Z,102859.88
2022-12-19T20:53:00.405Z,102858.44
2022-12-19T20:55:29.258Z,102854.19
2022-12-19T20:57:57.431Z,102849.44
2022-12-19T21:00:25.776Z,102854.53
2022-12-19T21:03:26.665Z,102856.34
2022-12-19T21:05:43.258Z,102849.31
2022-12-19T21:08:12.817Z,102843.41
2022-12-19T21:10:40.973Z,102838.66
2022-12-19T21:13:10.301Z,102836.03
2022-12-19T21:15:38.475Z,102836.69
2022-12-19T21:18:06.951Z,102835.69
2022-12-19T21:20:35.917Z,102839.56
2022-12-19T21:23:05.188Z,102836.19
2022-12-19T21:25:34.753Z,102829.81
2022-12-19T21:28:03.056Z,102839.03
2022-12-19T21:30:31.280Z,102833.56
2022-12-19T21:32:59.410Z,102835.38
2022-12-19T21:35:27.779Z,102833.91
2022-12-19T21:37:56.028Z,102837.53
2022-12-19T21:40:24.216Z,102850.84
2022-12-19T21:42:54.269Z,102838.00
2022-12-19T21:45:22.511Z,102834.41
2022-12-19T21:47:50.832Z,102830.78
2022-12-19T21:50:19.075Z,102820.94
2022-12-19T21:52:50.211Z,102829.16
2022-12-19T21:55:22.442Z,102828.50
2022-12-19T21:57:50.577Z,102817.50
2022-12-19T22:00:21.460Z,102803.88
2022-12-19T22:03:12.031Z,102808.97
2022-12-19T22:05:37.923Z,102792.03
2022-12-19T22:08:06.620Z,102794.03
2022-12-19T22:10:34.860Z,102799.13
2022-12-19T22:13:03.238Z,102789.41
2022-12-19T22:15:32.848Z,102798.94
2022-12-19T22:18:01.200Z,102786.47
2022-12-19T22:20:29.327Z,102773.66
2022-12-19T22:22:57.429Z,102772.34
2022-12-19T22:25:25.547Z,102777.44
2022-12-19T22:27:56.670Z,102790.91
2022-12-19T22:30:24.787Z,102784.81
2022-12-19T22:32:54.521Z,102774.50
2022-12-19T22:35:22.608Z,102771.38
2022-12-19T22:37:52.071Z,102770.38
2022-12-19T22:40:20.208Z,102768.41
2022-12-19T22:42:48.347Z,102768.25
2022-12-19T22:45:16.594Z,102773.97
2022-12-19T22:47:45.191Z,102761.00
2022-12-19T22:50:14.694Z,102767.72
2022-12-19T22:52:42.828Z,102763.81
2022-12-19T22:55:11.309Z,102768.41
2022-12-19T22:57:39.610Z,102755.88
2022-12-19T23:00:10.933Z,102758.19
2022-12-19T23:02:40.255Z,102742.41
2022-12-19T23:05:09.392Z,102737.13
2022-12-19T23:07:38.882Z,102737.75
2022-12-19T23:10:08.518Z,102735.91
2022-12-19T23:12:36.569Z,102723.75
2022-12-19T23:15:05.045Z,102726.69
2022-12-19T23:17:33.228Z,102718.28
2022-12-19T23:20:01.371Z,102705.63
2022-12-19T23:22:29.664Z,102722.56
2022-12-19T23:24:59.664Z,102725.53
2022-12-19T23:27:27.814Z,102726.22
2022-12-19T23:29:55.947Z,102716.03
2022-12-19T23:32:24.129Z,102713.91
2022-12-19T23:34:52.354Z,102711.41
2022-12-19T23:37:20.547Z,102713.59
2022-12-19T23:39:48.617Z,102709.63
2022-12-19T23:42:18.169Z,102711.44
2022-12-19T23:44:46.295Z,102719.00
2022-12-19T23:47:14.503Z,102716.72
2022-12-19T23:49:42.636Z,102723.59
2022-12-19T23:52:11.020Z,102711.47
2022-12-19T23:54:39.098Z,102709.50
2022-12-19T23:57:07.408Z,102718.97
2022-12-19T23:59:37.166Z,102715.00
